AAL809 KMCO-KTYS
Flight info
| Callsign | AAL809 |
|---|---|
| Flight time | 1h 19m |
| Altitude | 34000 |
| Route | JEEMY4 PAINN SHRKS Q77 TEUFL/N0446F330 Q77 WIGVO/N0452F340 ODF HIGGI |
| Aircraft | A320/M-SDE3FGHIRWY/LB1 |
Departure
| Time | 2026-05-09 13:06 |
|---|---|
| Airport | Orlando International Airport (KMCO) |
Arrival
| Time | 2026-05-09 14:25 |
|---|---|
| Airport | McGhee Tyson Airport (KTYS) |
| Time | Latitude | Longitude | Altitude | Speed | Heading |
|---|---|---|---|---|---|
| 2026-05-09 12:46 | 28.42797 | -81.31579 | 95 ft | 0 kts | 40° |
| 2026-05-09 12:56 | 28.42789 | -81.31587 | 90 ft | 3 kts | 44° |
| 2026-05-09 12:56 | 28.42776 | -81.31603 | 94 ft | 3 kts | 48° |
| 2026-05-09 12:57 | 28.42762 | -81.31620 | 95 ft | 3 kts | 43° |
| 2026-05-09 12:57 | 28.42747 | -81.31635 | 94 ft | 3 kts | 35° |
| 2026-05-09 12:57 | 28.42730 | -81.31647 | 94 ft | 3 kts | 22° |
| 2026-05-09 12:57 | 28.42711 | -81.31653 | 94 ft | 3 kts | 359° |
| 2026-05-09 12:58 | 28.42699 | -81.31652 | 94 ft | 1 kts | 347° |
| 2026-05-09 12:58 | 28.42697 | -81.31651 | 94 ft | 1 kts | 347° |
| 2026-05-09 13:00 | 28.42713 | -81.31677 | 97 ft | 10 kts | 283° |
| 2026-05-09 13:00 | 28.42709 | -81.31789 | 100 ft | 19 kts | 257° |
| 2026-05-09 13:00 | 28.42584 | -81.31834 | 102 ft | 25 kts | 180° |
| 2026-05-09 13:00 | 28.42373 | -81.31832 | 100 ft | 34 kts | 180° |
| 2026-05-09 13:01 | 28.42264 | -81.31751 | 99 ft | 18 kts | 86° |
| 2026-05-09 13:01 | 28.42268 | -81.31568 | 97 ft | 30 kts | 90° |
| 2026-05-09 13:01 | 28.42268 | -81.31286 | 94 ft | 41 kts | 90° |
| 2026-05-09 13:01 | 28.42224 | -81.30970 | 94 ft | 38 kts | 89° |
| 2026-05-09 13:02 | 28.42254 | -81.30683 | 98 ft | 36 kts | 85° |
| 2026-05-09 13:02 | 28.42274 | -81.30393 | 95 ft | 37 kts | 88° |
| 2026-05-09 13:02 | 28.42278 | -81.30099 | 95 ft | 38 kts | 89° |
| 2026-05-09 13:02 | 28.42278 | -81.29862 | 95 ft | 23 kts | 103° |
| 2026-05-09 13:03 | 28.42161 | -81.29793 | 96 ft | 21 kts | 179° |
| 2026-05-09 13:03 | 28.41977 | -81.29790 | 95 ft | 29 kts | 179° |
| 2026-05-09 13:03 | 28.41771 | -81.29788 | 95 ft | 30 kts | 179° |
| 2026-05-09 13:03 | 28.41556 | -81.29786 | 95 ft | 31 kts | 179° |
| 2026-05-09 13:04 | 28.41334 | -81.29785 | 96 ft | 32 kts | 178° |
| 2026-05-09 13:04 | 28.41105 | -81.29780 | 97 ft | 33 kts | 179° |
| 2026-05-09 13:04 | 28.40875 | -81.29778 | 94 ft | 24 kts | 179° |
| 2026-05-09 13:04 | 28.40820 | -81.29698 | 94 ft | 14 kts | 90° |
| 2026-05-09 13:05 | 28.40822 | -81.29589 | 94 ft | 10 kts | 88° |
| 2026-05-09 13:05 | 28.40852 | -81.29557 | 93 ft | 7 kts | 355° |
| 2026-05-09 13:05 | 28.40898 | -81.29560 | 94 ft | 24 kts | 356° |
| 2026-05-09 13:05 | 28.41362 | -81.29567 | 97 ft | 107 kts | 359° |
| 2026-05-09 13:06 | 28.42357 | -81.29577 | 107 ft | 171 kts | 359° |
| 2026-05-09 13:06 | 28.43632 | -81.29596 | 554 ft | 194 kts | 359° |
| 2026-05-09 13:06 | 28.44542 | -81.29534 | 1023 ft | 201 kts | 14° |
| 2026-05-09 13:06 | 28.45987 | -81.28868 | 2032 ft | 205 kts | 24° |
| 2026-05-09 13:07 | 28.47366 | -81.28122 | 2431 ft | 238 kts | 27° |
| 2026-05-09 13:07 | 28.48869 | -81.27169 | 2839 ft | 256 kts | 30° |
| 2026-05-09 13:07 | 28.50459 | -81.26103 | 3266 ft | 273 kts | 29° |
| 2026-05-09 13:07 | 28.52244 | -81.25336 | 3896 ft | 277 kts | 5° |
| 2026-05-09 13:08 | 28.54178 | -81.25127 | 4667 ft | 281 kts | 2° |
| 2026-05-09 13:08 | 28.56136 | -81.25066 | 5468 ft | 281 kts | 357° |
| 2026-05-09 13:08 | 28.58086 | -81.25185 | 6285 ft | 280 kts | 346° |
| 2026-05-09 13:08 | 28.59940 | -81.25933 | 6788 ft | 291 kts | 333° |
| 2026-05-09 13:09 | 28.61858 | -81.26938 | 6935 ft | 317 kts | 333° |
| 2026-05-09 13:09 | 28.63866 | -81.28026 | 6976 ft | 312 kts | 328° |
| 2026-05-09 13:09 | 28.65550 | -81.29408 | 7198 ft | 283 kts | 320° |
| 2026-05-09 13:09 | 28.67026 | -81.30687 | 7873 ft | 264 kts | 321° |
| 2026-05-09 13:10 | 28.68533 | -81.31979 | 8334 ft | 277 kts | 321° |
| 2026-05-09 13:10 | 28.70086 | -81.33308 | 9007 ft | 281 kts | 321° |
| 2026-05-09 13:10 | 28.71121 | -81.34195 | 9492 ft | 282 kts | 321° |
| 2026-05-09 13:10 | 28.72696 | -81.35543 | 10163 ft | 286 kts | 322° |
| 2026-05-09 13:11 | 28.74477 | -81.36697 | 10489 ft | 304 kts | 335° |
| 2026-05-09 13:11 | 28.76562 | -81.37409 | 10765 ft | 323 kts | 347° |
| 2026-05-09 13:11 | 28.78837 | -81.37838 | 10991 ft | 339 kts | 347° |
| 2026-05-09 13:11 | 28.81218 | -81.38313 | 11235 ft | 354 kts | 347° |
| 2026-05-09 13:12 | 28.83277 | -81.38744 | 11602 ft | 359 kts | 346° |
| 2026-05-09 13:12 | 28.85777 | -81.39276 | 12174 ft | 362 kts | 346° |
| 2026-05-09 13:12 | 28.88236 | -81.39799 | 12712 ft | 366 kts | 346° |
| 2026-05-09 13:12 | 28.90749 | -81.40331 | 13253 ft | 369 kts | 345° |
| 2026-05-09 13:13 | 28.93317 | -81.40875 | 13789 ft | 373 kts | 345° |
| 2026-05-09 13:13 | 28.95883 | -81.41399 | 14255 ft | 377 kts | 347° |
| 2026-05-09 13:13 | 28.98494 | -81.41803 | 14738 ft | 380 kts | 349° |
| 2026-05-09 13:13 | 29.01139 | -81.42107 | 15220 ft | 384 kts | 350° |
| 2026-05-09 13:14 | 29.03814 | -81.42363 | 15698 ft | 387 kts | 350° |
| 2026-05-09 13:14 | 29.06508 | -81.42607 | 16179 ft | 390 kts | 350° |
| 2026-05-09 13:16 | 29.25937 | -81.44433 | 19531 ft | 411 kts | 349° |
| 2026-05-09 13:16 | 29.28796 | -81.44703 | 19999 ft | 413 kts | 348° |
| 2026-05-09 13:16 | 29.31674 | -81.44978 | 20436 ft | 416 kts | 348° |
| 2026-05-09 13:16 | 29.34573 | -81.45259 | 20881 ft | 419 kts | 348° |
| 2026-05-09 13:17 | 29.37484 | -81.45539 | 21301 ft | 421 kts | 348° |
| 2026-05-09 13:17 | 29.40417 | -81.45819 | 21710 ft | 424 kts | 348° |
| 2026-05-09 13:17 | 29.43367 | -81.46100 | 22108 ft | 427 kts | 348° |
| 2026-05-09 13:17 | 29.46332 | -81.46383 | 22496 ft | 429 kts | 348° |
| 2026-05-09 13:18 | 29.49316 | -81.46669 | 22878 ft | 432 kts | 348° |
| 2026-05-09 13:18 | 29.52320 | -81.46955 | 23257 ft | 434 kts | 348° |
| 2026-05-09 13:18 | 29.54841 | -81.47195 | 23556 ft | 436 kts | 348° |
| 2026-05-09 13:18 | 29.57882 | -81.47483 | 23862 ft | 438 kts | 348° |
| 2026-05-09 13:19 | 29.60927 | -81.47768 | 24163 ft | 441 kts | 348° |
| 2026-05-09 13:19 | 29.63988 | -81.48048 | 24468 ft | 442 kts | 347° |
| 2026-05-09 13:19 | 29.67065 | -81.48324 | 24763 ft | 444 kts | 347° |
| 2026-05-09 13:19 | 29.70149 | -81.48599 | 25062 ft | 446 kts | 347° |
| 2026-05-09 13:20 | 29.73256 | -81.48879 | 25355 ft | 448 kts | 347° |
| 2026-05-09 13:20 | 29.76366 | -81.49163 | 25636 ft | 450 kts | 347° |
| 2026-05-09 13:20 | 29.79489 | -81.49448 | 25928 ft | 452 kts | 347° |
| 2026-05-09 13:20 | 29.82627 | -81.49733 | 26215 ft | 453 kts | 347° |
| 2026-05-09 13:21 | 29.85783 | -81.50020 | 26513 ft | 455 kts | 347° |
| 2026-05-09 13:21 | 29.88918 | -81.50427 | 26799 ft | 450 kts | 340° |
| 2026-05-09 13:21 | 29.91921 | -81.51331 | 27082 ft | 444 kts | 334° |
| 2026-05-09 13:21 | 29.94878 | -81.52396 | 27350 ft | 446 kts | 334° |
| 2026-05-09 13:22 | 29.97879 | -81.53476 | 27693 ft | 446 kts | 334° |
| 2026-05-09 13:22 | 30.00836 | -81.54537 | 28119 ft | 444 kts | 334° |
| 2026-05-09 13:22 | 30.03789 | -81.55594 | 28541 ft | 443 kts | 334° |
| 2026-05-09 13:23 | 30.15513 | -81.59771 | 30180 ft | 439 kts | 333° |
| 2026-05-09 13:23 | 30.18373 | -81.60792 | 30539 ft | 438 kts | 333° |
| 2026-05-09 13:24 | 30.21276 | -81.61829 | 30929 ft | 435 kts | 333° |
| 2026-05-09 13:24 | 30.24163 | -81.62862 | 31337 ft | 433 kts | 332° |
| 2026-05-09 13:24 | 30.27021 | -81.63889 | 31749 ft | 430 kts | 332° |
| 2026-05-09 13:24 | 30.29874 | -81.64917 | 32163 ft | 427 kts | 332° |
| 2026-05-09 13:25 | 30.32697 | -81.65936 | 32583 ft | 424 kts | 332° |
| 2026-05-09 13:25 | 30.35512 | -81.66951 | 32984 ft | 422 kts | 332° |
| 2026-05-09 13:25 | 30.41081 | -81.68956 | 33805 ft | 417 kts | 331° |
| 2026-05-09 13:26 | 30.43845 | -81.69952 | 33987 ft | 416 kts | 331° |
| 2026-05-09 13:26 | 30.49439 | -81.71988 | 34019 ft | 428 kts | 331° |
| 2026-05-09 13:27 | 30.55142 | -81.74065 | 34018 ft | 430 kts | 331° |
| 2026-05-09 13:27 | 30.60852 | -81.76124 | 34017 ft | 430 kts | 331° |
| 2026-05-09 13:27 | 30.63791 | -81.76953 | 34018 ft | 441 kts | 339° |
| 2026-05-09 13:28 | 30.66828 | -81.77546 | 34016 ft | 442 kts | 339° |
| 2026-05-09 13:28 | 30.72886 | -81.78746 | 34017 ft | 442 kts | 339° |
| 2026-05-09 13:29 | 30.78998 | -81.79969 | 34026 ft | 442 kts | 338° |
| 2026-05-09 13:29 | 30.85018 | -81.81179 | 34030 ft | 442 kts | 338° |
| 2026-05-09 13:30 | 30.91113 | -81.82402 | 34025 ft | 442 kts | 338° |
| 2026-05-09 13:30 | 30.96705 | -81.83528 | 34027 ft | 442 kts | 338° |
| 2026-05-09 13:31 | 31.02773 | -81.84756 | 34028 ft | 442 kts | 338° |
| 2026-05-09 13:31 | 31.08838 | -81.85983 | 34035 ft | 443 kts | 338° |
| 2026-05-09 13:32 | 31.14914 | -81.87202 | 34036 ft | 443 kts | 338° |
| 2026-05-09 13:32 | 31.24036 | -81.89038 | 34043 ft | 444 kts | 338° |
| 2026-05-09 13:33 | 31.30127 | -81.90270 | 34049 ft | 445 kts | 338° |
| 2026-05-09 13:33 | 31.36233 | -81.91513 | 34063 ft | 445 kts | 338° |
| 2026-05-09 13:34 | 31.42338 | -81.92760 | 34083 ft | 445 kts | 338° |
| 2026-05-09 13:34 | 31.48448 | -81.94004 | 34095 ft | 446 kts | 338° |
| 2026-05-09 13:35 | 31.54565 | -81.95239 | 34092 ft | 446 kts | 338° |
| 2026-05-09 13:35 | 31.60714 | -81.96487 | 34087 ft | 446 kts | 338° |
| 2026-05-09 13:36 | 31.66805 | -81.97721 | 34082 ft | 446 kts | 339° |
| 2026-05-09 13:36 | 31.72956 | -81.98977 | 34073 ft | 446 kts | 338° |
| 2026-05-09 13:37 | 31.79027 | -82.00222 | 34064 ft | 445 kts | 339° |
| 2026-05-09 13:37 | 31.85155 | -82.01476 | 34060 ft | 444 kts | 339° |
| 2026-05-09 13:38 | 31.88273 | -82.01857 | 34062 ft | 456 kts | 347° |
| 2026-05-09 13:38 | 31.91450 | -82.01963 | 34062 ft | 457 kts | 347° |
| 2026-05-09 13:38 | 31.97797 | -82.02170 | 34069 ft | 456 kts | 347° |
| 2026-05-09 13:39 | 32.04146 | -82.02389 | 34069 ft | 457 kts | 347° |
| 2026-05-09 13:39 | 32.10503 | -82.02613 | 34067 ft | 457 kts | 347° |
| 2026-05-09 13:40 | 32.16866 | -82.02835 | 34058 ft | 458 kts | 347° |
| 2026-05-09 13:40 | 32.23229 | -82.03052 | 34045 ft | 458 kts | 347° |
| 2026-05-09 13:41 | 32.29597 | -82.03269 | 34045 ft | 458 kts | 347° |
| 2026-05-09 13:41 | 32.35964 | -82.03491 | 34052 ft | 458 kts | 347° |
| 2026-05-09 13:42 | 32.42324 | -82.03719 | 34053 ft | 455 kts | 345° |
| 2026-05-09 13:42 | 32.45407 | -82.04224 | 34054 ft | 440 kts | 335° |
| 2026-05-09 13:42 | 32.48282 | -82.05274 | 34049 ft | 426 kts | 326° |
| 2026-05-09 13:43 | 32.53609 | -82.08182 | 34040 ft | 422 kts | 324° |
| 2026-05-09 13:43 | 32.58067 | -82.10634 | 34038 ft | 422 kts | 324° |
| 2026-05-09 13:44 | 32.63397 | -82.13545 | 34038 ft | 422 kts | 324° |
| 2026-05-09 13:44 | 32.68725 | -82.16468 | 34032 ft | 422 kts | 324° |
| 2026-05-09 13:45 | 32.74047 | -82.19393 | 34029 ft | 422 kts | 324° |
| 2026-05-09 13:45 | 32.79375 | -82.22326 | 34028 ft | 421 kts | 324° |
| 2026-05-09 13:46 | 32.84670 | -82.25249 | 34030 ft | 421 kts | 324° |
| 2026-05-09 13:46 | 32.89986 | -82.28190 | 34028 ft | 422 kts | 324° |
| 2026-05-09 13:47 | 32.95313 | -82.31138 | 34019 ft | 422 kts | 325° |
| 2026-05-09 13:47 | 33.00643 | -82.34086 | 34020 ft | 423 kts | 325° |
| 2026-05-09 13:48 | 33.05985 | -82.37050 | 34012 ft | 423 kts | 325° |
| 2026-05-09 13:48 | 33.11329 | -82.40017 | 34021 ft | 425 kts | 325° |
| 2026-05-09 13:49 | 33.16693 | -82.42996 | 34021 ft | 425 kts | 326° |
| 2026-05-09 13:49 | 33.22059 | -82.45986 | 34031 ft | 425 kts | 325° |
| 2026-05-09 13:50 | 33.27415 | -82.48973 | 34042 ft | 425 kts | 325° |
| 2026-05-09 13:50 | 33.32774 | -82.51962 | 34053 ft | 425 kts | 325° |
| 2026-05-09 13:51 | 33.38158 | -82.54968 | 34060 ft | 424 kts | 325° |
| 2026-05-09 13:51 | 33.43503 | -82.57953 | 34074 ft | 424 kts | 325° |
| 2026-05-09 13:52 | 33.48838 | -82.60948 | 34074 ft | 423 kts | 325° |
| 2026-05-09 13:52 | 33.54159 | -82.63939 | 34075 ft | 422 kts | 324° |
| 2026-05-09 13:53 | 33.59472 | -82.66934 | 34066 ft | 421 kts | 324° |
| 2026-05-09 13:53 | 33.64764 | -82.69905 | 34033 ft | 420 kts | 324° |
| 2026-05-09 13:54 | 33.70047 | -82.72868 | 34041 ft | 419 kts | 324° |
| 2026-05-09 13:54 | 33.75314 | -82.75844 | 34043 ft | 418 kts | 324° |
| 2026-05-09 13:55 | 33.80562 | -82.78819 | 34045 ft | 417 kts | 324° |
| 2026-05-09 13:55 | 33.85802 | -82.81786 | 34046 ft | 415 kts | 324° |
| 2026-05-09 13:56 | 33.91028 | -82.84738 | 34040 ft | 414 kts | 323° |
| 2026-05-09 13:56 | 33.96225 | -82.87684 | 34025 ft | 412 kts | 323° |
| 2026-05-09 13:57 | 34.01400 | -82.90626 | 34026 ft | 411 kts | 323° |
| 2026-05-09 13:57 | 34.06553 | -82.93560 | 34031 ft | 409 kts | 322° |
| 2026-05-09 13:58 | 34.11689 | -82.96492 | 34027 ft | 408 kts | 322° |
| 2026-05-09 13:58 | 34.16803 | -82.99412 | 34024 ft | 406 kts | 322° |
| 2026-05-09 13:59 | 34.21899 | -83.02324 | 34019 ft | 405 kts | 322° |
| 2026-05-09 13:59 | 34.26992 | -83.05230 | 34012 ft | 404 kts | 322° |
| 2026-05-09 14:00 | 34.30383 | -83.07168 | 34012 ft | 402 kts | 322° |
| 2026-05-09 14:00 | 34.37137 | -83.11046 | 34011 ft | 401 kts | 321° |
| 2026-05-09 14:01 | 34.42172 | -83.13938 | 34010 ft | 400 kts | 321° |
| 2026-05-09 14:01 | 34.47197 | -83.16838 | 34034 ft | 400 kts | 321° |
| 2026-05-09 14:02 | 34.52223 | -83.19734 | 34031 ft | 399 kts | 321° |
| 2026-05-09 14:02 | 34.57239 | -83.22622 | 34041 ft | 399 kts | 321° |
| 2026-05-09 14:03 | 34.62243 | -83.25513 | 34044 ft | 398 kts | 321° |
| 2026-05-09 14:03 | 34.67202 | -83.28371 | 33953 ft | 385 kts | 321° |
| 2026-05-09 14:04 | 34.69630 | -83.29771 | 33015 ft | 390 kts | 321° |
| 2026-05-09 14:04 | 34.72090 | -83.31266 | 31739 ft | 401 kts | 321° |
| 2026-05-09 14:04 | 34.74605 | -83.32873 | 30454 ft | 415 kts | 321° |
| 2026-05-09 14:04 | 34.77167 | -83.34542 | 29326 ft | 421 kts | 321° |
| 2026-05-09 14:05 | 34.79753 | -83.36216 | 28662 ft | 416 kts | 321° |
| 2026-05-09 14:05 | 34.82294 | -83.37835 | 28050 ft | 410 kts | 322° |
| 2026-05-09 14:05 | 34.84812 | -83.39431 | 27428 ft | 406 kts | 323° |
| 2026-05-09 14:05 | 34.87306 | -83.41009 | 26810 ft | 402 kts | 323° |
| 2026-05-09 14:06 | 34.89771 | -83.42570 | 26211 ft | 398 kts | 323° |
| 2026-05-09 14:06 | 34.92217 | -83.44123 | 25602 ft | 394 kts | 323° |
| 2026-05-09 14:06 | 34.94632 | -83.45666 | 25017 ft | 391 kts | 324° |
| 2026-05-09 14:06 | 34.97037 | -83.47210 | 24438 ft | 388 kts | 323° |
| 2026-05-09 14:07 | 34.99416 | -83.48735 | 23869 ft | 385 kts | 324° |
| 2026-05-09 14:07 | 35.01786 | -83.50251 | 23270 ft | 384 kts | 324° |
| 2026-05-09 14:07 | 35.04136 | -83.51753 | 22686 ft | 380 kts | 324° |
| 2026-05-09 14:07 | 35.06500 | -83.53262 | 22161 ft | 376 kts | 325° |
| 2026-05-09 14:08 | 35.08808 | -83.54738 | 21633 ft | 373 kts | 325° |
| 2026-05-09 14:08 | 35.11098 | -83.56204 | 21140 ft | 369 kts | 325° |
| 2026-05-09 14:08 | 35.13363 | -83.57654 | 20654 ft | 367 kts | 325° |
| 2026-05-09 14:08 | 35.15588 | -83.59081 | 20198 ft | 364 kts | 326° |
| 2026-05-09 14:09 | 35.17848 | -83.60538 | 19736 ft | 361 kts | 326° |
| 2026-05-09 14:09 | 35.20064 | -83.61965 | 19281 ft | 359 kts | 326° |
| 2026-05-09 14:09 | 35.22266 | -83.63384 | 18830 ft | 356 kts | 326° |
| 2026-05-09 14:09 | 35.24449 | -83.64787 | 18371 ft | 354 kts | 327° |
| 2026-05-09 14:10 | 35.28766 | -83.67559 | 17389 ft | 346 kts | 326° |
| 2026-05-09 14:10 | 35.30886 | -83.68920 | 16924 ft | 341 kts | 326° |
| 2026-05-09 14:10 | 35.32972 | -83.70261 | 16459 ft | 338 kts | 326° |
| 2026-05-09 14:11 | 35.35042 | -83.71593 | 15980 ft | 334 kts | 326° |
| 2026-05-09 14:11 | 35.37089 | -83.72913 | 15509 ft | 331 kts | 326° |
| 2026-05-09 14:11 | 35.39117 | -83.74226 | 15027 ft | 328 kts | 326° |
| 2026-05-09 14:11 | 35.41128 | -83.75529 | 14564 ft | 326 kts | 326° |
| 2026-05-09 14:12 | 35.43150 | -83.76778 | 14071 ft | 327 kts | 330° |
| 2026-05-09 14:12 | 35.44914 | -83.77535 | 13667 ft | 332 kts | 338° |
| 2026-05-09 14:12 | 35.47205 | -83.78046 | 13138 ft | 339 kts | 348° |
| 2026-05-09 14:12 | 35.49563 | -83.78233 | 12632 ft | 337 kts | 349° |
| 2026-05-09 14:13 | 35.51895 | -83.78416 | 12125 ft | 334 kts | 349° |
| 2026-05-09 14:14 | 35.67476 | -83.79657 | 9820 ft | 292 kts | 358° |
| 2026-05-09 14:15 | 35.69458 | -83.78931 | 9405 ft | 307 kts | 24° |
| 2026-05-09 14:15 | 35.71247 | -83.77453 | 8996 ft | 309 kts | 31° |
| 2026-05-09 14:15 | 35.72963 | -83.75880 | 8590 ft | 307 kts | 32° |
| 2026-05-09 14:15 | 35.74667 | -83.74317 | 8190 ft | 304 kts | 32° |
| 2026-05-09 14:16 | 35.75811 | -83.73276 | 7938 ft | 301 kts | 32° |
| 2026-05-09 14:16 | 35.78040 | -83.71260 | 7409 ft | 299 kts | 32° |
| 2026-05-09 14:16 | 35.79172 | -83.70244 | 7140 ft | 297 kts | 32° |
| 2026-05-09 14:16 | 35.80834 | -83.68768 | 6759 ft | 291 kts | 32° |
| 2026-05-09 14:17 | 35.82456 | -83.67341 | 6379 ft | 282 kts | 32° |
| 2026-05-09 14:17 | 35.84028 | -83.65958 | 5965 ft | 274 kts | 32° |
| 2026-05-09 14:17 | 35.85578 | -83.64645 | 5572 ft | 266 kts | 27° |
| 2026-05-09 14:17 | 35.87253 | -83.63883 | 5174 ft | 251 kts | 3° |
| 2026-05-09 14:18 | 35.88943 | -83.63958 | 4787 ft | 237 kts | 340° |
| 2026-05-09 14:18 | 35.90400 | -83.64762 | 4359 ft | 226 kts | 318° |
| 2026-05-09 14:18 | 35.91486 | -83.66116 | 4034 ft | 220 kts | 298° |
| 2026-05-09 14:18 | 35.92118 | -83.67791 | 3859 ft | 213 kts | 280° |
| 2026-05-09 14:19 | 35.92293 | -83.69575 | 3737 ft | 210 kts | 270° |
| 2026-05-09 14:19 | 35.92528 | -83.71351 | 3598 ft | 211 kts | 281° |
| 2026-05-09 14:19 | 35.92937 | -83.73098 | 3478 ft | 213 kts | 283° |
| 2026-05-09 14:19 | 35.93380 | -83.74838 | 3367 ft | 212 kts | 283° |
| 2026-05-09 14:20 | 35.93832 | -83.76570 | 3232 ft | 212 kts | 283° |
| 2026-05-09 14:20 | 35.94270 | -83.78299 | 3124 ft | 210 kts | 279° |
| 2026-05-09 14:20 | 35.94246 | -83.80050 | 3036 ft | 204 kts | 253° |
| 2026-05-09 14:21 | 35.93225 | -83.83303 | 3021 ft | 204 kts | 244° |
| 2026-05-09 14:21 | 35.92627 | -83.84888 | 3019 ft | 203 kts | 244° |
| 2026-05-09 14:21 | 35.91976 | -83.86433 | 3022 ft | 194 kts | 231° |
| 2026-05-09 14:21 | 35.91079 | -83.87552 | 3016 ft | 179 kts | 224° |
| 2026-05-09 14:22 | 35.90235 | -83.88567 | 3050 ft | 160 kts | 226° |
| 2026-05-09 14:22 | 35.89479 | -83.89488 | 3052 ft | 137 kts | 225° |
| 2026-05-09 14:22 | 35.88811 | -83.90305 | 2928 ft | 134 kts | 226° |
| 2026-05-09 14:22 | 35.88141 | -83.91125 | 2696 ft | 136 kts | 225° |
| 2026-05-09 14:23 | 35.87476 | -83.91939 | 2497 ft | 133 kts | 226° |
| 2026-05-09 14:23 | 35.86813 | -83.92750 | 2310 ft | 136 kts | 227° |
| 2026-05-09 14:23 | 35.86134 | -83.93581 | 2118 ft | 139 kts | 225° |
| 2026-05-09 14:23 | 35.85457 | -83.94408 | 1935 ft | 136 kts | 226° |
| 2026-05-09 14:24 | 35.84773 | -83.95244 | 1750 ft | 142 kts | 225° |
| 2026-05-09 14:24 | 35.84065 | -83.96108 | 1532 ft | 145 kts | 225° |
| 2026-05-09 14:24 | 35.83346 | -83.97014 | 1332 ft | 150 kts | 224° |
| 2026-05-09 14:24 | 35.82587 | -83.97920 | 1109 ft | 151 kts | 224° |
| 2026-05-09 14:25 | 35.81853 | -83.98806 | 1005 ft | 141 kts | 223° |
| 2026-05-09 14:25 | 35.81208 | -83.99584 | 969 ft | 112 kts | 226° |
| 2026-05-09 14:25 | 35.80840 | -84.00043 | 966 ft | 53 kts | 223° |
| 2026-05-09 14:25 | 35.80675 | -84.00202 | 966 ft | 18 kts | 164° |
| 2026-05-09 14:26 | 35.80635 | -84.00090 | 967 ft | 16 kts | 53° |
| 2026-05-09 14:26 | 35.80720 | -83.99989 | 966 ft | 18 kts | 47° |
| 2026-05-09 14:26 | 35.80816 | -83.99869 | 962 ft | 21 kts | 45° |
| 2026-05-09 14:26 | 35.80807 | -83.99737 | 966 ft | 17 kts | 126° |
| 2026-05-09 14:27 | 35.80731 | -83.99611 | 959 ft | 21 kts | 126° |
| 2026-05-09 14:27 | 35.80650 | -83.99469 | 964 ft | 14 kts | 85° |
| 2026-05-09 14:27 | 35.80714 | -83.99371 | 965 ft | 17 kts | 43° |
| 2026-05-09 14:27 | 35.80806 | -83.99257 | 962 ft | 21 kts | 50° |
| 2026-05-09 14:28 | 35.80920 | -83.99128 | 964 ft | 24 kts | 46° |
| 2026-05-09 14:28 | 35.80914 | -83.99024 | 967 ft | 15 kts | 169° |
| 2026-05-09 14:28 | 35.80820 | -83.98960 | 969 ft | 13 kts | 134° |
| 2026-05-09 14:28 | 35.80768 | -83.98974 | 967 ft | 8 kts | 244° |
| 2026-05-09 14:29 | 35.80757 | -83.99002 | 965 ft | 0 kts | 243° |
| 2026-05-09 14:29 | 35.80756 | -83.99003 | 965 ft | 0 kts | 243° |